Warning: Javascript must be enabled to use all the features on this page!


Page Loading - Please Wait...

Click to hideNews Bulletins

Peak Streamflow for the Nation

USGS 04087000 MILWAUKEE RIVER AT MILWAUKEE, WI

Milwaukee County, Wisconsin
Hydrologic Unit Code 04040003
Latitude  43°06'00", Longitude  87°54'32" NAD27
Drainage area 696  square miles
Gage datum 606.91 feet above NAVD88
Output formats
Table
Graph
Tab-separated file
peakfq (watstore) format
Reselect output format
Water
Year
Date Gage
Height
(feet)
Stream-
flow
(cfs)
1915 1915-02-24 5.703 5,460
1916 1916-03-29 5.003 4,410
1917 1917-03-25 5.603 5,310
1918 1918-03-20 9.003 15,100
1919 1919-03-18 5.603 5,310
1920 1920-06-17 6.603 7,050
1921 1921-04-23 4.803 4,470
1922 1922-02-24 4.703 4,310
1923 1923-04-07 5.803 7,060
1924 1924-08-06 9.003 15,100
1925 1925-02-11 3.403 3,350
1926 1926-03-25 4.103 4,740
1927 1927-03-13 3.703 3,940
1928 1928-03-15 4.403 5,350
1929 1929-03-15 7.103,6 11,000
1930 1930-02-26 3.803 4,180
1931 1931-04-07 2.003 945
1932 1931-11-24 2.802,3 2,200
1933 1933-04-02 4.503 6,370
1934 1934-04-04 5.466 2,260
1935 1935-03-17 5.60 3,3002
1936 1936-03-24 4.62 2,990
1937 1937-02-21 5.93 6,640
1938 1938-02-12 6.19 7,360
1939 1939-03-26 4.83 2,440
1940 1940-06-24 7.10 6,570
1941 1941-03-27 4.85 2,5005
1942 1942-03-17 4.74 2,360
1943 1943-03-16 6.81 5,860
1944 1944-02-27 4.52 2,030
1945 1945-03-16 4.33 1,840
1946 1946-03-15 7.00 6,330
1947 1947-03-25 4.80 2,500
1948 1948-03-19 7.55 8,080
1949 1949-07-28 4.10 1,620
1950 1950-03-28 6.42 5,540
1951 1951-03-30 6.54 5,740
1952 1952-03-22 7.13 7,010
1953 1953-06-05 6.89 6,580
1954 1954-06-22 5.62 4,030
1955 1954-10-04 5.92 4,590
1956 1956-05-10 5.65 3,940
1957 1957-05-13 4.34 2,0405
1958 1958-09-24 4.63 2,440
1959 1959-04-03 7.92 8,780
1960 1960-03-31 8.05 9,300
1961 1961-09-13 5.41 3,740
1962 1962-03-28 6.28 5,400
1963 1963-03-28 4.962 2,980
1964 1964-07-18 5.92 4,690
1965 1965-04-08 6.45 5,740
1966 1966-02-12 6.272 5,380
1967 1967-08-06 5.18 3,4705
1968 1968-06-23 6.08 4,9605
1969 1969-06-26 5.54 4,060
1970 1970-09-24 5.17 3,450
1971 1971-04-13 5.60 4,130
1972 1972-09-18 6.24 5,090
1973 1973-04-21 9.29 12,600
1974 1974-03-04 6.61 6,190
1975 1975-03-24 7.53 8,100
1976 1976-03-04 6.59 6,050
1977 1977-06-11 6.39 5,650
1978 1978-07-02 7.46 7,920
1979 1979-03-23 6.34 5,550
1980 1979-10-29 5.262 3,600
1981 1981-07-13 6.19 5,160
1982 1982-04-03 5.90 4,630
1983 1983-08-17 5.95 4,720
1984 1984-07-10 6.57 5,880
1985 1985-09-08 5.122 3,310
1986 1986-09-11 6.35 5,920
1987 1986-10-04 4.96 3,260
1988 1988-01-19 5.14 3,560
1989 1989-03-28 5.90 4,980
1990 1990-03-13 5.65 4,490
1991 1991-07-01 4.96 3,260
1992 1991-11-01 4.88 3,120
1993 1993-04-19 6.87 7,080
1994 1994-03-23 4.36 2,320
1995 1995-08-28 5.68 4,550
1996 1996-06-19 6.50 6,240
1997 1997-06-21 10.00 16,500
1998 1998-08-06 7.50 8,600
1999 1999-04-09 6.03 5,250
2000 2000-05-18 5.70 4,580
2001 2001-04-12 4.81 3,010
2002 2002-08-12 5.42 4,060
2003 2003-05-09 4.68 2,800
2004 2004-05-24 6.93 7,220
2005 2005-03-09 4.37 2,440
2006 2006-04-03 4.872 3,2705
2007 2007-04-03 5.75 4,780
2008 2008-06-07 8.07 10,400
2009 2009-04-26 6.05 5,390
2010 2010-07-22 10.48 18,200
2011 2011-03-23 5.83 5,020
2012 2012-05-06 4.12 2,160
2013 2013-04-12 6.56 6,500
2014 2014-04-15 5.68 4,880
2015 2015-04-09 7.15 8,180
2016 2016-03-31 4.74 3,140
2017 2017-06-28 5.09 3,670
2018 2018-08-28 6.85 6,930
2019 2019-03-17 6.77 6,730
2020 2020-05-17 7.13 7,560
?
  Peak Gage-Height Qualification Codes.
?
  Peak Streamflow Qualification Codes.